createdAt,value
2019-05-22T00:01:50.987Z,6.45
2019-05-22T00:04:22.116Z,6.72
2019-05-22T00:06:52.358Z,6.60
2019-05-22T00:09:24.020Z,7.75
2019-05-22T00:11:56.556Z,6.65
2019-05-22T00:14:27.796Z,6.87
2019-05-22T00:17:01.175Z,6.53
2019-05-22T00:19:30.726Z,6.62
2019-05-22T00:22:07.588Z,6.87
2019-05-22T00:24:39.589Z,6.97
2019-05-22T00:27:11.564Z,7.00
2019-05-22T00:29:44.155Z,7.35
2019-05-22T00:32:16.551Z,6.90
2019-05-22T00:34:48.646Z,7.17
2019-05-22T00:37:18.678Z,6.87
2019-05-22T00:39:48.535Z,6.55
2019-05-22T00:42:19.048Z,6.62
2019-05-22T00:44:51.675Z,7.42
2019-05-22T00:47:22.877Z,7.25
2019-05-22T00:49:52.934Z,6.78
2019-05-22T00:52:28.049Z,6.80
2019-05-22T00:55:16.051Z,6.62
2019-05-22T00:57:56.915Z,6.67
2019-05-22T01:00:28.042Z,7.42
2019-05-22T01:02:59.167Z,7.12
2019-05-22T01:05:29.547Z,6.83
2019-05-22T01:08:00.742Z,7.53
2019-05-22T01:10:31.474Z,7.10
2019-05-22T01:13:03.472Z,6.28
2019-05-22T01:15:33.036Z,6.67
2019-05-22T01:18:06.847Z,6.80
2019-05-22T01:20:37.977Z,5.95
2019-05-22T01:23:09.295Z,6.90
2019-05-22T01:25:39.076Z,7.10
2019-05-22T01:28:09.971Z,6.30
2019-05-22T01:30:44.375Z,6.35
2019-05-22T01:33:15.772Z,6.22
2019-05-22T01:35:52.861Z,6.90
2019-05-22T01:38:23.302Z,6.55
2019-05-22T01:41:01.748Z,6.53
2019-05-22T01:43:32.157Z,6.20
2019-05-22T01:46:03.753Z,6.40
2019-05-22T01:48:39.608Z,6.70
2019-05-22T01:51:12.620Z,6.95
2019-05-22T01:53:43.860Z,6.35
2019-05-22T01:56:15.854Z,6.67
2019-05-22T01:58:47.367Z,6.15
2019-05-22T02:01:19.075Z,6.05
2019-05-22T02:03:50.346Z,6.45
2019-05-22T02:06:23.864Z,7.03
2019-05-22T02:09:14.123Z,6.03
2019-05-22T02:11:46.226Z,6.67
2019-05-22T02:14:17.554Z,6.05
2019-05-22T02:16:56.755Z,6.28
2019-05-22T02:19:20.766Z,6.37
2019-05-22T02:21:50.495Z,6.40
2019-05-22T02:24:20.141Z,6.45
2019-05-22T02:26:50.078Z,6.53
2019-05-22T02:29:21.441Z,6.47
2019-05-22T02:31:55.171Z,7.20
2019-05-22T02:34:23.488Z,6.83
2019-05-22T02:36:53.797Z,7.90
2019-05-22T02:39:30.898Z,6.75
2019-05-22T02:42:06.573Z,7.22
2019-05-22T02:44:37.098Z,6.17
2019-05-22T02:47:19.258Z,6.72
2019-05-22T02:49:39.974Z,6.60
2019-05-22T02:52:11.516Z,7.33
2019-05-22T02:54:41.559Z,7.37
2019-05-22T02:57:11.792Z,7.15
2019-05-22T02:59:43.218Z,7.15
2019-05-22T03:02:14.439Z,7.47
2019-05-22T03:04:59.871Z,6.92
2019-05-22T03:07:31.595Z,6.83
2019-05-22T03:10:02.290Z,6.35
2019-05-22T03:12:34.636Z,6.75
2019-05-22T03:15:07.443Z,6.85
2019-05-22T03:17:39.936Z,6.85
2019-05-22T03:20:16.725Z,7.33
2019-05-22T03:22:55.294Z,6.70
2019-05-22T03:25:27.044Z,7.60
2019-05-22T03:27:57.648Z,6.70
2019-05-22T03:30:37.156Z,7.08
2019-05-22T03:33:11.896Z,6.97
2019-05-22T03:35:47.498Z,6.97
2019-05-22T03:38:19.131Z,6.83
2019-05-22T03:40:51.165Z,6.90
2019-05-22T03:43:23.658Z,6.58
2019-05-22T03:45:55.432Z,6.70
2019-05-22T03:48:27.562Z,6.90
2019-05-22T03:51:13.441Z,7.37
2019-05-22T03:53:44.041Z,7.47
2019-05-22T03:56:15.994Z,6.60
2019-05-22T03:58:48.737Z,7.83
2019-05-22T04:03:49.501Z,6.85
2019-05-22T04:06:20.757Z,7.47
2019-05-22T04:08:52.648Z,7.10
2019-05-22T04:11:24.383Z,7.28
2019-05-22T04:13:54.431Z,7.05
2019-05-22T04:16:25.701Z,6.50
2019-05-22T04:18:57.861Z,7.15
2019-05-22T04:21:27.523Z,6.40
2019-05-22T04:23:57.293Z,6.60
2019-05-22T04:26:26.877Z,6.90
2019-05-22T04:28:57.100Z,6.08
2019-05-22T04:31:48.727Z,7.10
2019-05-22T04:34:19.935Z,6.72
2019-05-22T04:36:54.119Z,6.67
2019-05-22T04:39:27.517Z,7.47
2019-05-22T04:41:59.204Z,6.78
2019-05-22T04:44:29.337Z,6.87
2019-05-22T04:47:00.408Z,7.00
2019-05-22T04:49:29.957Z,7.37
2019-05-22T04:51:59.604Z,6.80
2019-05-22T04:54:29.745Z,6.70
2019-05-22T04:56:59.360Z,6.97
2019-05-22T04:59:30.204Z,7.72
2019-05-22T05:02:00.961Z,7.95
2019-05-22T05:04:30.523Z,6.92
2019-05-22T05:07:00.727Z,7.67
2019-05-22T05:09:30.929Z,6.65
2019-05-22T05:12:00.483Z,6.97
2019-05-22T05:14:32.386Z,7.03
2019-05-22T05:17:04.115Z,7.22
2019-05-22T05:19:33.975Z,7.87
2019-05-22T05:22:03.588Z,7.80
2019-05-22T05:24:33.502Z,6.78
2019-05-22T05:27:04.347Z,8.00
2019-05-22T05:29:34.549Z,8.45
2019-05-22T05:32:04.122Z,7.33
2019-05-22T05:34:39.694Z,7.80
2019-05-22T05:37:10.117Z,8.28
2019-05-22T05:39:52.820Z,8.20
2019-05-22T05:42:22.370Z,7.72
2019-05-22T05:44:51.932Z,7.28
2019-05-22T05:47:23.471Z,7.47
2019-05-22T05:49:53.199Z,7.42
2019-05-22T05:52:24.032Z,7.17
2019-05-22T05:54:54.083Z,7.85
2019-05-22T05:57:38.739Z,7.42
2019-05-22T06:00:29.477Z,6.83
2019-05-22T06:03:31.503Z,7.72
2019-05-22T06:06:23.081Z,6.83
2019-05-22T06:08:55.763Z,6.87
2019-05-22T06:11:31.584Z,7.45
2019-05-22T06:14:08.623Z,7.25
2019-05-22T06:16:57.563Z,6.58
2019-05-22T06:19:28.437Z,6.55
2019-05-22T06:21:58.200Z,7.58
2019-05-22T06:24:38.033Z,7.37
2019-05-22T06:27:16.843Z,8.05
2019-05-22T06:29:53.045Z,6.95
2019-05-22T06:32:38.608Z,5.87
2019-05-22T06:35:10.033Z,5.80
2019-05-22T06:38:10.373Z,6.22
2019-05-22T06:40:39.935Z,6.35
2019-05-22T06:43:25.798Z,6.03
2019-05-22T06:45:56.374Z,6.08
2019-05-22T06:48:25.880Z,6.00
2019-05-22T06:50:56.456Z,6.80
2019-05-22T06:53:26.396Z,6.42
2019-05-22T06:55:56.138Z,6.58
2019-05-22T06:58:26.614Z,6.70
2019-05-22T07:00:56.225Z,6.40
2019-05-22T07:03:25.859Z,5.83
2019-05-22T07:05:56.088Z,6.60
2019-05-22T07:08:25.885Z,7.65
2019-05-22T07:10:55.521Z,5.95
2019-05-22T07:13:25.956Z,5.95
2019-05-22T07:15:55.852Z,6.90
2019-05-22T07:18:27.066Z,7.37
2019-05-22T07:20:58.277Z,7.45
2019-05-22T07:23:28.389Z,6.97
2019-05-22T07:25:58.884Z,6.40
2019-05-22T07:28:30.124Z,6.83
2019-05-22T07:31:00.371Z,6.75
2019-05-22T07:33:30.342Z,7.67
2019-05-22T07:36:17.230Z,7.37
2019-05-22T07:38:32.660Z,7.40
2019-05-22T07:41:02.664Z,6.90
2019-05-22T07:43:32.352Z,6.58
2019-05-22T07:46:02.401Z,6.17
2019-05-22T07:48:32.361Z,5.95
2019-05-22T07:51:04.063Z,5.97
2019-05-22T07:53:33.754Z,6.97
2019-05-22T07:56:07.731Z,5.95
2019-05-22T07:58:38.666Z,6.03
2019-05-22T08:01:09.605Z,6.72
2019-05-22T08:03:42.984Z,7.10
2019-05-22T08:06:13.279Z,6.37
2019-05-22T08:08:44.744Z,6.60
2019-05-22T08:11:15.977Z,6.40
2019-05-22T08:13:46.310Z,6.97
2019-05-22T08:16:17.553Z,6.83
2019-05-22T08:18:47.567Z,6.42
2019-05-22T08:21:17.495Z,5.55
2019-05-22T08:23:47.490Z,5.65
2019-05-22T08:26:54.276Z,6.15
2019-05-22T08:29:22.119Z,6.00
2019-05-22T08:31:53.434Z,5.05
2019-05-22T08:34:25.146Z,5.20
2019-05-22T08:36:55.261Z,5.90
2019-05-22T08:39:25.487Z,5.25
2019-05-22T08:41:55.735Z,4.87
2019-05-22T08:44:26.072Z,4.75
2019-05-22T08:46:56.512Z,4.87
2019-05-22T08:49:27.120Z,5.00
2019-05-22T08:51:57.883Z,5.35
2019-05-22T08:54:28.606Z,5.55
2019-05-22T08:56:58.741Z,5.12
2019-05-22T08:59:28.544Z,6.15
2019-05-22T09:01:58.272Z,5.62
2019-05-22T09:04:27.955Z,5.50
2019-05-22T09:06:58.665Z,5.37
2019-05-22T09:09:29.254Z,4.53
2019-05-22T09:11:58.991Z,4.55
2019-05-22T09:14:28.645Z,4.37
2019-05-22T09:16:58.628Z,4.40
2019-05-22T09:19:28.538Z,4.45
2019-05-22T09:21:58.985Z,4.97
2019-05-22T09:24:28.846Z,4.70
2019-05-22T09:27:02.609Z,3.80
2019-05-22T09:29:30.040Z,4.08
2019-05-22T09:31:59.797Z,3.40
2019-05-22T09:34:29.308Z,4.30
2019-05-22T09:36:59.112Z,3.90
2019-05-22T09:39:29.104Z,3.30
2019-05-22T09:41:58.594Z,3.60
2019-05-22T09:44:28.156Z,3.67
2019-05-22T09:46:57.781Z,3.20
2019-05-22T09:49:28.121Z,3.67
2019-05-22T09:51:57.747Z,3.75
2019-05-22T09:54:27.764Z,3.80
2019-05-22T09:56:57.407Z,3.27
2019-05-22T09:59:27.124Z,3.47
2019-05-22T10:01:57.155Z,3.40
2019-05-22T10:04:26.835Z,3.52
2019-05-22T10:06:56.427Z,3.20
2019-05-22T10:09:26.135Z,3.70
2019-05-22T10:11:56.359Z,3.33
2019-05-22T10:14:25.982Z,3.20
2019-05-22T10:16:55.634Z,3.25
2019-05-22T10:19:25.288Z,3.40
2019-05-22T10:21:55.616Z,3.77
2019-05-22T10:24:26.021Z,2.92
2019-05-22T10:26:56.361Z,3.40
2019-05-22T10:29:26.482Z,3.20
2019-05-22T10:32:16.985Z,4.00
2019-05-22T10:34:46.820Z,3.12
2019-05-22T10:37:16.857Z,2.75
2019-05-22T10:39:46.771Z,3.25
2019-05-22T10:42:16.998Z,3.55
2019-05-22T10:44:46.679Z,2.90
2019-05-22T10:47:18.802Z,3.10
2019-05-22T10:49:48.296Z,3.15
2019-05-22T10:52:18.323Z,3.17
2019-05-22T10:54:47.939Z,3.25
2019-05-22T10:57:18.272Z,2.90
2019-05-22T10:59:47.907Z,2.80
2019-05-22T11:02:17.638Z,2.77
2019-05-22T11:04:47.569Z,3.02
2019-05-22T11:07:18.103Z,2.62
2019-05-22T11:09:47.665Z,2.83
2019-05-22T11:12:18.433Z,2.45
2019-05-22T11:14:48.308Z,2.40
2019-05-22T11:17:18.468Z,2.25
2019-05-22T11:19:48.408Z,2.33
2019-05-22T11:22:19.166Z,2.58
2019-05-22T11:24:48.862Z,2.20
2019-05-22T11:27:18.831Z,2.90
2019-05-22T11:29:49.469Z,3.35
2019-05-22T11:32:20.015Z,2.20
2019-05-22T11:34:50.234Z,2.50
2019-05-22T11:37:21.073Z,2.52
2019-05-22T11:39:53.010Z,2.62
2019-05-22T11:42:22.831Z,2.40
2019-05-22T11:44:52.462Z,2.58
2019-05-22T11:47:22.096Z,2.37
2019-05-22T11:49:51.727Z,2.72
2019-05-22T11:52:21.493Z,2.70
2019-05-22T11:54:51.251Z,2.80
2019-05-22T11:57:21.240Z,2.98
2019-05-22T11:59:50.803Z,2.90
2019-05-22T12:02:23.124Z,2.42
2019-05-22T12:04:53.766Z,2.37
2019-05-22T12:07:23.412Z,2.17
2019-05-22T12:09:53.670Z,2.10
2019-05-22T12:12:24.066Z,2.37
2019-05-22T12:14:55.100Z,2.77
2019-05-22T12:17:37.722Z,2.37
2019-05-22T12:19:56.962Z,2.30
2019-05-22T12:22:26.561Z,2.77
2019-05-22T12:24:57.819Z,2.92
2019-05-22T12:27:27.496Z,2.60
2019-05-22T12:29:57.212Z,2.45
2019-05-22T12:32:29.665Z,2.60
2019-05-22T12:35:00.504Z,2.62
2019-05-22T12:37:30.948Z,2.12
2019-05-22T12:40:01.356Z,2.47
2019-05-22T12:42:31.769Z,2.30
2019-05-22T12:45:01.471Z,2.62
2019-05-22T12:47:31.766Z,2.75
2019-05-22T12:50:02.624Z,2.85
2019-05-22T12:52:32.519Z,2.30
2019-05-22T12:55:02.847Z,2.40
2019-05-22T12:57:34.483Z,2.33
2019-05-22T13:00:08.326Z,2.95
2019-05-22T13:02:42.232Z,2.90
2019-05-22T13:05:14.293Z,2.63
2019-05-22T13:07:42.377Z,2.17
2019-05-22T13:10:12.149Z,2.00
2019-05-22T13:12:41.720Z,2.60
2019-05-22T13:15:12.266Z,2.12
2019-05-22T13:17:42.791Z,1.98
2019-05-22T13:20:15.662Z,2.35
2019-05-22T13:25:18.763Z,2.40
2019-05-22T13:27:51.196Z,2.17
2019-05-22T13:30:28.190Z,2.60
2019-05-22T13:32:57.038Z,2.30
2019-05-22T13:35:28.305Z,2.45
2019-05-22T13:37:58.933Z,2.30
2019-05-22T13:40:31.280Z,2.75
2019-05-22T13:43:02.275Z,2.05
2019-05-22T13:45:33.066Z,3.87
2019-05-22T13:48:02.702Z,2.47
2019-05-22T13:50:32.514Z,2.42
2019-05-22T13:53:03.792Z,2.55
2019-05-22T13:55:33.532Z,2.25
2019-05-22T13:58:05.391Z,2.10
2019-05-22T14:00:37.258Z,2.20
2019-05-22T14:03:07.697Z,1.98
2019-05-22T14:05:38.004Z,2.20
2019-05-22T14:08:09.276Z,2.10
2019-05-22T14:10:39.819Z,2.00
2019-05-22T14:13:09.525Z,2.00
2019-05-22T14:15:50.403Z,1.90
2019-05-22T14:18:10.788Z,2.37
2019-05-22T14:20:40.342Z,2.60
2019-05-22T14:23:09.907Z,2.37
2019-05-22T14:25:39.745Z,2.20
2019-05-22T14:28:09.658Z,2.12
2019-05-22T14:30:39.229Z,2.05
2019-05-22T14:33:08.858Z,2.00
2019-05-22T14:35:48.079Z,2.47
2019-05-22T14:38:12.127Z,2.00
2019-05-22T14:40:42.622Z,1.62
2019-05-22T14:43:12.519Z,1.85
2019-05-22T14:45:43.301Z,1.95
2019-05-22T14:48:13.855Z,1.92
2019-05-22T14:50:43.488Z,2.62
2019-05-22T14:53:14.324Z,1.80
2019-05-22T14:55:44.497Z,1.95
2019-05-22T14:58:16.207Z,1.98
2019-05-22T15:00:46.686Z,1.80
2019-05-22T15:03:16.574Z,1.90
2019-05-22T15:05:46.141Z,1.77
2019-05-22T15:08:18.110Z,1.80
2019-05-22T15:10:48.045Z,1.77
2019-05-22T15:13:17.677Z,1.95
2019-05-22T15:15:48.049Z,2.22
2019-05-22T15:18:17.995Z,2.40
2019-05-22T15:20:49.199Z,1.98
2019-05-22T15:23:21.032Z,2.20
2019-05-22T15:25:50.765Z,1.85
2019-05-22T15:28:26.014Z,2.20
2019-05-22T15:30:54.063Z,1.90
2019-05-22T15:33:24.316Z,2.12
2019-05-22T15:35:54.685Z,2.20
2019-05-22T15:38:24.539Z,2.42
2019-05-22T15:40:55.030Z,2.20
2019-05-22T15:43:26.444Z,2.40
2019-05-22T15:45:59.586Z,2.05
2019-05-22T15:48:31.691Z,2.20
2019-05-22T15:51:06.941Z,1.97
2019-05-22T15:53:38.242Z,2.52
2019-05-22T15:56:10.465Z,2.15
2019-05-22T15:58:43.863Z,2.20
2019-05-22T16:01:16.485Z,2.05
2019-05-22T16:03:48.228Z,1.87
2019-05-22T16:06:18.457Z,1.90
2019-05-22T16:08:48.888Z,2.22
2019-05-22T16:11:20.691Z,2.25
2019-05-22T16:13:51.331Z,2.10
2019-05-22T16:16:23.948Z,1.95
2019-05-22T16:18:56.524Z,2.35
2019-05-22T16:23:58.468Z,1.90
2019-05-22T16:26:29.962Z,1.90
2019-05-22T16:29:01.569Z,2.20
2019-05-22T16:31:32.075Z,2.00
2019-05-22T16:34:02.622Z,1.80
2019-05-22T16:36:33.270Z,1.65
2019-05-22T16:39:04.420Z,1.90
2019-05-22T16:41:34.843Z,1.80
2019-05-22T16:44:05.513Z,1.82
2019-05-22T16:46:36.044Z,1.80
2019-05-22T16:49:06.352Z,1.85
2019-05-22T16:51:36.532Z,1.70
2019-05-22T16:54:08.583Z,1.80
2019-05-22T16:56:39.420Z,1.80
2019-05-22T16:59:11.832Z,1.80
2019-05-22T17:01:57.693Z,1.92
2019-05-22T17:04:14.603Z,2.00
2019-05-22T17:06:45.415Z,2.00
2019-05-22T17:09:16.575Z,1.82
2019-05-22T17:11:46.644Z,2.00
2019-05-22T17:14:17.672Z,1.90
2019-05-22T17:16:47.437Z,1.90
2019-05-22T17:19:26.416Z,1.80
2019-05-22T17:21:49.791Z,1.70
2019-05-22T17:24:20.066Z,1.77
2019-05-22T17:26:52.448Z,2.40
2019-05-22T17:29:22.896Z,1.87
2019-05-22T17:31:53.703Z,1.92
2019-05-22T17:34:33.169Z,2.30
2019-05-22T17:37:09.666Z,2.22
2019-05-22T17:39:42.293Z,1.70
2019-05-22T17:44:45.579Z,1.60
2019-05-22T17:49:45.155Z,1.80
2019-05-22T17:52:16.380Z,1.50
2019-05-22T17:54:46.597Z,1.92
2019-05-22T17:57:16.572Z,2.40
2019-05-22T17:59:46.197Z,1.98
2019-05-22T18:02:17.866Z,1.87
2019-05-22T18:04:47.425Z,1.62
2019-05-22T18:07:17.338Z,1.67
2019-05-22T18:09:46.938Z,1.90
2019-05-22T18:12:17.338Z,1.62
2019-05-22T18:14:47.904Z,2.00
2019-05-22T18:17:17.839Z,2.02
2019-05-22T18:19:47.463Z,2.10
2019-05-22T18:22:17.333Z,2.30
2019-05-22T18:24:47.892Z,2.15
2019-05-22T18:27:17.471Z,2.22
2019-05-22T18:29:47.032Z,2.02
2019-05-22T18:32:17.121Z,1.90
2019-05-22T18:34:46.696Z,2.00
2019-05-22T18:37:16.254Z,1.98
2019-05-22T18:39:45.910Z,1.82
2019-05-22T18:42:15.938Z,2.10
2019-05-22T18:44:45.522Z,1.90
2019-05-22T18:47:16.551Z,1.80
2019-05-22T18:49:46.129Z,1.60
2019-05-22T18:52:15.751Z,1.77
2019-05-22T18:54:45.357Z,1.85
2019-05-22T18:57:14.919Z,2.12
2019-05-22T18:59:44.994Z,1.95
2019-05-22T19:02:15.351Z,2.05
2019-05-22T19:04:45.014Z,2.10
2019-05-22T19:07:14.745Z,1.87
2019-05-22T19:09:44.479Z,2.20
2019-05-22T19:12:14.242Z,1.87
2019-05-22T19:14:45.403Z,2.10
2019-05-22T19:17:15.096Z,1.87
2019-05-22T19:19:44.732Z,2.10
2019-05-22T19:22:14.892Z,2.92
2019-05-22T19:24:44.495Z,5.42
2019-05-22T19:27:14.113Z,10.43
2019-05-22T19:29:44.884Z,10.18
2019-05-22T19:32:15.155Z,10.53
2019-05-22T19:34:44.920Z,9.28
2019-05-22T19:37:14.508Z,8.65
2019-05-22T19:39:44.346Z,9.08
2019-05-22T19:42:14.347Z,7.67
2019-05-22T19:44:44.150Z,8.08
2019-05-22T19:47:14.379Z,6.83
2019-05-22T19:49:44.513Z,6.70
2019-05-22T19:52:15.052Z,6.25
2019-05-22T19:54:45.512Z,5.78
2019-05-22T19:57:16.347Z,4.65
2019-05-22T19:59:46.338Z,4.45
2019-05-22T20:02:17.639Z,3.77
2019-05-22T20:04:47.548Z,3.80
2019-05-22T20:07:17.419Z,3.10
2019-05-22T20:09:47.233Z,2.60
2019-05-22T20:12:17.961Z,2.90
2019-05-22T20:14:47.799Z,2.90
2019-05-22T20:17:17.525Z,3.05
2019-05-22T20:19:47.270Z,2.83
2019-05-22T20:22:17.877Z,2.90
2019-05-22T20:24:47.504Z,2.77
2019-05-22T20:27:17.922Z,3.15
2019-05-22T20:29:47.603Z,3.30
2019-05-22T20:32:18.170Z,3.10
2019-05-22T20:34:48.507Z,2.90
2019-05-22T20:37:18.744Z,3.30
2019-05-22T20:39:48.312Z,3.58
2019-05-22T20:42:18.377Z,3.00
2019-05-22T20:44:48.436Z,3.55
2019-05-22T20:47:20.556Z,3.62
2019-05-22T20:49:51.492Z,3.33
2019-05-22T20:52:22.022Z,3.50
2019-05-22T20:54:52.352Z,3.42
2019-05-22T20:57:22.709Z,3.47
2019-05-22T20:59:52.288Z,3.52
2019-05-22T21:02:24.156Z,3.50
2019-05-22T21:04:55.006Z,3.85
2019-05-22T21:07:31.102Z,3.37
2019-05-22T21:10:00.700Z,3.52
2019-05-22T21:12:35.508Z,4.15
2019-05-22T21:15:03.093Z,3.72
2019-05-22T21:17:33.670Z,4.22
2019-05-22T21:20:06.032Z,4.37
2019-05-22T21:22:35.597Z,4.22
2019-05-22T21:25:07.138Z,4.65
2019-05-22T21:27:38.465Z,4.65
2019-05-22T21:30:12.726Z,5.20
2019-05-22T21:32:43.757Z,4.17
2019-05-22T21:35:16.410Z,4.05
2019-05-22T21:37:45.962Z,4.70
2019-05-22T21:40:17.049Z,4.83
2019-05-22T21:42:46.692Z,5.55
2019-05-22T21:45:17.047Z,4.50
2019-05-22T21:47:46.747Z,4.60
2019-05-22T21:50:17.611Z,4.97
2019-05-22T21:52:47.953Z,4.58
2019-05-22T21:55:19.391Z,4.28
2019-05-22T21:57:49.223Z,4.50
2019-05-22T22:00:41.155Z,3.98
2019-05-22T22:03:22.119Z,4.25
2019-05-22T22:05:51.686Z,4.55
2019-05-22T22:08:21.912Z,4.97
2019-05-22T22:10:51.685Z,4.72
2019-05-22T22:13:21.307Z,4.65
2019-05-22T22:15:52.536Z,4.85
2019-05-22T22:18:24.678Z,5.12
2019-05-22T22:20:55.067Z,9.38
2019-05-22T22:23:25.703Z,6.67
2019-05-22T22:25:56.290Z,5.28
2019-05-22T22:28:27.247Z,5.33
2019-05-22T22:30:58.838Z,5.70
2019-05-22T22:33:31.334Z,4.72
2019-05-22T22:36:02.176Z,4.60
2019-05-22T22:38:35.139Z,4.10
2019-05-22T22:41:07.227Z,4.62
2019-05-22T22:43:39.660Z,4.75
2019-05-22T22:46:21.123Z,5.17
2019-05-22T22:48:53.437Z,5.08
2019-05-22T22:51:24.466Z,5.07
2019-05-22T22:53:56.154Z,4.42
2019-05-22T22:56:26.717Z,5.05
2019-05-22T22:58:56.743Z,5.30
2019-05-22T23:01:30.551Z,4.85
2019-05-22T23:04:01.739Z,5.12
2019-05-22T23:06:35.866Z,5.87
2019-05-22T23:09:05.307Z,5.62
2019-05-22T23:11:37.740Z,5.53
2019-05-22T23:14:08.547Z,6.05
2019-05-22T23:16:40.701Z,5.67
2019-05-22T23:19:14.754Z,7.28
2019-05-22T23:21:44.672Z,6.95
2019-05-22T23:24:14.585Z,6.30
2019-05-22T23:26:44.859Z,7.35
2019-05-22T23:29:15.592Z,6.97
2019-05-22T23:31:45.080Z,7.03
2019-05-22T23:34:15.041Z,7.37
2019-05-22T23:36:45.370Z,7.37
2019-05-22T23:39:15.406Z,7.78
2019-05-22T23:41:46.582Z,6.87
2019-05-22T23:44:19.560Z,6.85
2019-05-22T23:46:49.716Z,6.83
2019-05-22T23:49:19.392Z,8.20
2019-05-22T23:51:50.323Z,7.58
2019-05-22T23:54:20.850Z,7.50
2019-05-22T23:56:52.021Z,6.85
2019-05-22T23:59:22.342Z,6.42
